Time;durP1;ratioP1;P1;durP2;ratioP2;P2;SDS_P1;SDS_P2;PMS_P1;PMS_P2;Temp;Humidity;BMP_temperature;BMP_pressure;BME280_temperature;BME280_humidity;BME280_pressure;Samples;Min_cycle;Max_cycle;Signal;HPM_P1;HPM_P2
2021/07/23 00:00:29;;;;;;;1.70;1.60;;;;;;;;;;5013357;28;20029;-51
2021/07/23 00:02:55;;;;;;;2.20;2.00;;;;;;;;;;5013180;28;20025;-50
2021/07/23 00:05:21;;;;;;;2.05;1.92;;;;;;;;;;5013283;28;20034;-50
2021/07/23 00:07:47;;;;;;;1.80;1.70;;;;;;;;;;5013118;28;20029;-50
2021/07/23 00:10:13;;;;;;;2.17;1.95;;;;;;;;;;5013442;28;20025;-50
2021/07/23 00:12:39;;;;;;;2.22;1.90;;;;;;;;;;5013082;28;20496;-49
2021/07/23 00:15:05;;;;;;;2.00;1.83;;;;;;;;;;5013028;28;20100;-50
2021/07/23 00:17:31;;;;;;;2.17;1.50;;;;;;;;;;5013039;28;20101;-50
2021/07/23 00:19:57;;;;;;;2.08;1.63;;;;;;;;;;5013004;28;20153;-49
2021/07/23 00:22:23;;;;;;;3.10;1.90;;;;;;;;;;5012952;28;20037;-49
2021/07/23 00:24:49;;;;;;;2.47;1.60;;;;;;;;;;5012933;28;20037;-49
2021/07/23 00:27:15;;;;;;;2.63;2.00;;;;;;;;;;5012828;28;20057;-49
2021/07/23 00:29:42;;;;;;;2.20;2.00;;;24.60;82.40;;;;;;5012928;28;20497;-50
2021/07/23 00:32:08;;;;;;;2.33;1.90;;;;;;;;;;5012709;28;20498;-51
2021/07/23 00:34:34;;;;;;;2.22;1.98;;;;;;;;;;5012763;28;20073;-48
2021/07/23 00:37:00;;;;;;;2.33;2.10;;;;;;;;;;5012324;28;20057;-50
2021/07/23 00:39:26;;;;;;;2.13;1.77;;;;;;;;;;5012677;28;20030;-50
2021/07/23 00:41:53;;;;;;;3.17;1.90;;;;;;;;;;5012635;28;20026;-50
2021/07/23 00:44:19;;;;;;;2.33;1.98;;;;;;;;;;5012861;28;20029;-52
2021/07/23 00:46:45;;;;;;;2.35;1.80;;;;;;;;;;5012464;28;20026;-51
2021/07/23 00:49:11;;;;;;;1.80;1.70;;;24.50;79.70;;;;;;5012547;28;20018;-49
2021/07/23 00:51:37;;;;;;;2.58;2.17;;;;;;;;;;5012545;28;20022;-51
2021/07/23 00:54:05;;;;;;;2.53;1.83;;;24.60;83.10;;;;;;5012398;28;20478;-48
2021/07/23 00:56:31;;;;;;;2.10;1.80;;;;;;;;;;5012519;28;20036;-50
2021/07/23 00:58:59;;;;;;;2.88;2.10;;;24.50;83.80;;;;;;5012394;28;20532;-50
2021/07/23 01:01:25;;;;;;;2.65;2.00;;;;;;;;;;5012327;28;20025;-48
2021/07/23 01:03:51;;;;;;;1.77;1.67;;;;;;;;;;5012356;28;20022;-50
2021/07/23 01:06:17;;;;;;;2.50;1.77;;;;;;;;;;5012310;28;20045;-52
2021/07/23 01:08:43;;;;;;;3.30;2.13;;;;;;;;;;5012258;28;20026;-52
2021/07/23 01:11:12;;;;;;;2.35;1.80;;;24.50;83.40;;;;;;5012289;28;20211;-50
2021/07/23 01:13:40;;;;;;;2.53;1.83;;;24.40;83.60;;;;;;5012294;28;20041;-53
2021/07/23 01:16:06;;;;;;;2.75;2.00;;;;;;;;;;5012222;28;20014;-52
2021/07/23 01:18:32;;;;;;;2.25;1.58;;;;;;;;;;5012271;28;20032;-51
2021/07/23 01:20:58;;;;;;;2.03;1.83;;;24.50;81.00;;;;;;5012235;28;20478;-54
2021/07/23 01:23:31;;;;;;;2.47;2.25;;;24.50;77.90;;;;;;5012127;28;20026;-50
2021/07/23 01:25:58;;;;;;;2.58;2.00;;;;;;;;;;5012810;28;20437;-51
2021/07/23 01:28:27;;;;;;;2.70;2.22;;;24.40;84.10;;;;;;5012354;28;20437;-52
2021/07/23 01:30:53;;;;;;;3.22;2.38;;;;;;;;;;5012127;28;20045;-50
2021/07/23 01:33:19;;;;;;;3.28;1.80;;;;;;;;;;5012000;28;20081;-53
2021/07/23 01:35:46;;;;;;;2.50;2.30;;;;;;;;;;5012035;28;20104;-49
2021/07/23 01:38:14;;;;;;;2.10;1.90;;;24.40;84.00;;;;;;5012064;28;20025;-54
2021/07/23 01:40:40;;;;;;;2.53;1.83;;;;;;;;;;5012052;28;20105;-48
2021/07/23 01:43:06;;;;;;;2.13;1.92;;;;;;;;;;5011979;28;20060;-52
2021/07/23 01:45:33;;;;;;;2.75;2.05;;;;;;;;;;5012193;28;20022;-52
2021/07/23 01:47:59;;;;;;;3.55;1.95;;;;;;;;;;5013543;28;20065;-52
2021/07/23 01:50:25;;;;;;;3.45;2.35;;;;;;;;;;5015717;28;20101;-49
2021/07/23 01:52:51;;;;;;;2.33;2.03;;;;;;;;;;5015659;28;20113;-50
2021/07/23 01:55:17;;;;;;;2.38;2.17;;;;;;;;;;5015631;28;20037;-52
2021/07/23 01:57:43;;;;;;;2.05;1.90;;;;;;;;;;5015545;28;20030;-53
2021/07/23 02:00:09;;;;;;;2.50;2.03;;;;;;;;;;5015603;28;20029;-53
2021/07/23 02:02:35;;;;;;;2.65;2.13;;;;;;;;;;5015459;28;20029;-50
2021/07/23 02:05:02;;;;;;;2.40;1.80;;;;;;;;;;5015429;28;20129;-53
2021/07/23 02:07:28;;;;;;;4.15;2.40;;;;;;;;;;5015423;28;20057;-52
2021/07/23 02:09:54;;;;;;;2.63;2.00;;;;;;;;;;5015236;28;20037;-49
2021/07/23 02:12:20;;;;;;;2.00;1.80;;;;;;;;;;5015252;28;20022;-51
2021/07/23 02:14:47;;;;;;;2.42;2.08;;;;;;;;;;5015207;28;20041;-51
2021/07/23 02:17:13;;;;;;;3.22;2.47;;;;;;;;;;5015196;28;20072;-52
2021/07/23 02:19:39;;;;;;;3.65;2.20;;;;;;;;;;5015157;28;20470;-51
2021/07/23 02:22:07;;;;;;;2.70;1.90;;;24.50;82.60;;;;;;5015087;28;20544;-49
2021/07/23 02:24:33;;;;;;;2.88;2.25;;;;;;;;;;5015070;28;20374;-52
2021/07/23 02:26:59;;;;;;;3.45;2.45;;;;;;;;;;5015087;28;20064;-51
2021/07/23 02:29:25;;;;;;;3.05;1.90;;;;;;;;;;5015083;28;20029;-52
2021/07/23 02:31:51;;;;;;;3.53;2.13;;;;;;;;;;5015036;28;20509;-52
2021/07/23 02:34:17;;;;;;;2.65;1.60;;;;;;;;;;5014904;28;20492;-50
2021/07/23 02:36:43;;;;;;;2.20;2.00;;;;;;;;;;5014928;28;20030;-50
2021/07/23 02:39:09;;;;;;;2.83;2.20;;;;;;;;;;5014889;28;20049;-49
2021/07/23 02:41:36;;;;;;;2.90;2.40;;;;;;;;;;5014795;28;20025;-50
2021/07/23 02:44:02;;;;;;;3.53;2.17;;;24.20;79.30;;;;;;5014801;28;20030;-49
2021/07/23 02:46:29;;;;;;;2.70;2.30;;;;;;;;;;5014644;28;20034;-50
2021/07/23 02:48:55;;;;;;;2.10;1.90;;;;;;;;;;5014650;28;20028;-51
2021/07/23 02:51:21;;;;;;;2.72;2.30;;;;;;;;;;5014569;28;20060;-51
2021/07/23 02:53:47;;;;;;;3.75;2.20;;;;;;;;;;5014460;28;20069;-50
2021/07/23 02:56:13;;;;;;;2.28;2.08;;;;;;;;;;5014552;28;20100;-51
2021/07/23 02:58:43;;;;;;;2.33;2.13;;;;;;;;;;5014022;28;20450;-51
2021/07/23 03:01:09;;;;;;;2.28;2.03;;;;;;;;;;5014775;28;20026;-50
2021/07/23 03:03:35;;;;;;;2.17;1.98;;;;;;;;;;5014450;28;20100;-53
2021/07/23 03:06:01;;;;;;;2.50;2.00;;;;;;;;;;5014327;28;20107;-53
2021/07/23 03:08:27;;;;;;;2.70;2.10;;;;;;;;;;5014296;28;20109;-51
2021/07/23 03:10:54;;;;;;;2.17;1.98;;;23.80;78.90;;;;;;5014546;28;20108;-49
2021/07/23 03:13:20;;;;;;;2.22;2.03;;;;;;;;;;5014213;28;20084;-50
2021/07/23 03:15:46;;;;;;;3.50;2.25;;;;;;;;;;4996718;28;20038;-50
2021/07/23 03:18:12;;;;;;;2.58;2.38;;;;;;;;;;5014180;28;20025;-55
2021/07/23 03:20:38;;;;;;;2.33;2.13;;;;;;;;;;5014172;28;20026;-52
2021/07/23 03:23:05;;;;;;;3.53;2.17;;;24.10;82.30;;;;;;5014067;28;20040;-50
2021/07/23 03:25:31;;;;;;;2.88;2.30;;;;;;;;;;5014392;28;20096;-51
2021/07/23 03:27:57;;;;;;;2.45;2.13;;;;;;;;;;5014008;28;20041;-53
2021/07/23 03:30:23;;;;;;;3.63;1.70;;;;;;;;;;4996371;28;20022;-51
2021/07/23 03:32:49;;;;;;;1.63;1.52;;;;;;;;;;5013788;28;20069;-49
2021/07/23 03:35:15;;;;;;;2.75;2.03;;;;;;;;;;5013921;28;20026;-51
2021/07/23 03:37:41;;;;;;;2.20;2.00;;;;;;;;;;5013869;28;20453;-50
2021/07/23 03:40:08;;;;;;;2.00;1.58;;;24.10;83.30;;;;;;5013771;28;20046;-51
2021/07/23 03:42:34;;;;;;;3.30;2.22;;;24.10;82.80;;;;;;5013787;28;20032;-49
2021/07/23 03:45:00;;;;;;;2.30;1.98;;;;;;;;;;5013660;28;20026;-50
2021/07/23 03:47:26;;;;;;;2.20;1.85;;;;;;;;;;5013519;28;20045;-49
2021/07/23 03:49:52;;;;;;;2.35;2.10;;;;;;;;;;5013593;28;20026;-49
2021/07/23 03:52:18;;;;;;;3.05;1.83;;;;;;;;;;5013495;28;20534;-51
2021/07/23 03:54:44;;;;;;;2.90;2.42;;;;;;;;;;5013538;28;20038;-49
2021/07/23 03:57:10;;;;;;;1.70;1.60;;;;;;;;;;4996104;28;20091;-50
2021/07/23 03:59:36;;;;;;;2.47;2.22;;;;;;;;;;5013499;28;20049;-53
2021/07/23 04:02:02;;;;;;;2.45;2.00;;;24.10;80.60;;;;;;5013385;28;20079;-50
2021/07/23 04:04:28;;;;;;;2.22;1.85;;;;;;;;;;5013724;28;20026;-51
2021/07/23 04:07:01;;;;;;;2.58;2.22;;;24.00;80.60;;;;;;5013282;28;20041;-50
2021/07/23 04:09:28;;;;;;;1.95;1.80;;;24.00;81.70;;;;;;5013082;28;20478;-50
2021/07/23 04:11:54;;;;;;;1.85;1.67;;;;;;;;;;5012771;28;20264;-51
2021/07/23 04:14:21;;;;;;;4.63;2.20;;;24.00;83.00;;;;;;5013142;28;20418;-50
2021/07/23 04:16:48;;;;;;;3.50;1.90;;;;;;;;;;5013110;28;20034;-50
2021/07/23 04:19:14;;;;;;;3.75;1.70;;;;;;;;;;5013082;28;20116;-52
2021/07/23 04:21:40;;;;;;;2.22;1.95;;;;;;;;;;5013115;28;20489;-49
2021/07/23 04:24:06;;;;;;;2.42;1.88;;;;;;;;;;5013005;28;20034;-50
2021/07/23 04:26:32;;;;;;;2.22;2.03;;;24.00;78.20;;;;;;5013019;28;20022;-49
2021/07/23 04:28:58;;;;;;;2.60;1.95;;;;;;;;;;5012911;28;20057;-51
2021/07/23 04:31:24;;;;;;;2.05;1.88;;;;;;;;;;5012854;28;20084;-50
2021/07/23 04:33:50;;;;;;;1.90;1.80;;;;;;;;;;5012778;28;20041;-49
2021/07/23 04:36:16;;;;;;;2.55;1.98;;;;;;;;;;5012801;28;20533;-51
2021/07/23 04:38:42;;;;;;;2.25;1.88;;;;;;;;;;5012817;28;20109;-50
2021/07/23 04:41:08;;;;;;;2.40;2.20;;;;;;;;;;5012718;28;20026;-52
2021/07/23 04:43:39;;;;;;;2.65;1.95;;;;;;;;;;5012751;28;20040;-49
2021/07/23 04:46:05;;;;;;;2.65;1.90;;;;;;;;;;4995127;28;20033;-49
2021/07/23 04:48:32;;;;;;;2.05;1.85;;;;;;;;;;5012771;28;20390;-50
2021/07/23 04:51:01;;;;;;;2.63;1.90;;;23.90;82.00;;;;;;5012891;28;20026;-54
2021/07/23 04:53:27;;;;;;;1.73;1.63;;;;;;;;;;5012498;28;20041;-53
2021/07/23 04:55:55;;;;;;;2.92;1.88;;;;;;;;;;5012572;28;20026;-50
2021/07/23 04:58:21;;;;;;;2.42;2.03;;;;;;;;;;5012784;28;20060;-52
2021/07/23 05:00:48;;;;;;;2.60;1.92;;;;;;;;;;5012455;28;20073;-51
2021/07/23 05:03:14;;;;;;;1.70;1.60;;;;;;;;;;5012421;28;20030;-51
2021/07/23 05:05:43;;;;;;;2.33;1.90;;;23.90;81.70;;;;;;5012489;28;20076;-50
2021/07/23 05:08:10;;;;;;;2.58;1.88;;;;;;;;;;5012389;28;20018;-50
2021/07/23 05:10:37;;;;;;;2.08;1.77;;;23.90;79.90;;;;;;5012482;28;20434;-51
2021/07/23 05:13:06;;;;;;;2.58;1.90;;;23.90;75.40;;;;;;5012583;28;20390;-51
2021/07/23 05:15:33;;;;;;;2.05;1.90;;;23.90;80.10;;;;;;5012429;28;20057;-48
2021/07/23 05:17:59;;;;;;;2.30;2.10;;;;;;;;;;5012330;28;20022;-50
2021/07/23 05:20:25;;;;;;;2.47;2.20;;;;;;;;;;5012296;28;20429;-49
2021/07/23 05:22:51;;;;;;;2.15;1.90;;;;;;;;;;5015826;28;20025;-54
2021/07/23 05:25:17;;;;;;;3.17;2.20;;;;;;;;;;5016425;28;20368;-52
2021/07/23 05:27:43;;;;;;;2.33;1.73;;;;;;;;;;5016557;28;20497;-53
2021/07/23 05:30:09;;;;;;;2.33;1.75;;;;;;;;;;5016448;28;20032;-49
2021/07/23 05:32:35;;;;;;;3.20;1.75;;;;;;;;;;4998645;28;20021;-51
2021/07/23 05:35:01;;;;;;;3.10;2.03;;;;;;;;;;5016373;28;20053;-51
2021/07/23 05:37:27;;;;;;;4.78;2.00;;;;;;;;;;5016287;28;20037;-51
2021/07/23 05:39:53;;;;;;;2.17;1.80;;;;;;;;;;5016249;28;20029;-52
2021/07/23 05:42:19;;;;;;;1.48;1.38;;;;;;;;;;5016150;28;20073;-54
2021/07/23 05:44:45;;;;;;;3.75;2.08;;;;;;;;;;5016225;28;20026;-55
2021/07/23 05:47:11;;;;;;;3.65;2.05;;;;;;;;;;5016148;28;20029;-52
2021/07/23 05:49:37;;;;;;;2.20;1.90;;;;;;;;;;5016370;28;20025;-54
2021/07/23 05:52:04;;;;;;;2.33;2.13;;;24.10;81.60;;;;;;5016062;28;20390;-55
2021/07/23 05:54:30;;;;;;;2.22;1.90;;;;;;;;;;5015965;28;20030;-54
2021/07/23 05:56:57;;;;;;;2.42;1.90;;;23.90;80.10;;;;;;5016230;28;20022;-54
2021/07/23 05:59:23;;;;;;;2.13;1.92;;;;;;;;;;5015881;28;20030;-52
2021/07/23 06:01:49;;;;;;;2.13;1.80;;;;;;;;;;5015857;28;20074;-52
2021/07/23 06:04:14;;;;;;;2.47;1.70;;;;;;;;;;5015631;28;20439;-50
2021/07/23 06:06:40;;;;;;;2.10;2.00;;;;;;;;;;5015581;28;20026;-52
2021/07/23 06:09:06;;;;;;;4.38;2.03;;;;;;;;;;5015640;28;20049;-55
2021/07/23 06:11:34;;;;;;;2.63;2.10;;;;;;;;;;5015644;28;20034;-54
2021/07/23 06:14:00;;;;;;;2.80;1.95;;;;;;;;;;5015521;28;20030;-52
2021/07/23 06:16:25;;;;;;;4.13;1.88;;;;;;;;;;5015511;28;20079;-53
2021/07/23 06:18:51;;;;;;;6.32;1.83;;;;;;;;;;5015466;28;20108;-55
2021/07/23 06:21:20;;;;;;;3.95;1.80;;;;;;;;;;5015667;28;20033;-54
2021/07/23 06:23:45;;;;;;;4.85;2.08;;;;;;;;;;5015482;28;20022;-55
2021/07/23 06:26:12;;;;;;;3.15;1.92;;;;;;;;;;5015390;28;20022;-54
2021/07/23 06:28:37;;;;;;;2.83;2.00;;;;;;;;;;5015276;28;20430;-54
2021/07/23 06:31:04;;;;;;;2.38;1.75;;;23.80;82.50;;;;;;5015188;28;20022;-51
2021/07/23 06:33:30;;;;;;;2.15;1.92;;;;;;;;;;5014382;28;20030;-52
2021/07/23 06:35:56;;;;;;;2.80;1.80;;;;;;;;;;5015161;28;20032;-52
2021/07/23 06:38:22;;;;;;;3.30;1.98;;;;;;;;;;5015126;28;20034;-53
2021/07/23 06:40:48;;;;;;;1.98;1.70;;;;;;;;;;5015125;28;20068;-54
2021/07/23 06:43:14;;;;;;;2.72;1.95;;;;;;;;;;5015030;28;20038;-52
2021/07/23 06:45:41;;;;;;;1.83;1.63;;;;;;;;;;4997322;28;20466;-54
2021/07/23 06:48:07;;;;;;;2.70;1.80;;;;;;;;;;5014850;28;20052;-53
2021/07/23 06:50:33;;;;;;;2.17;2.08;;;;;;;;;;5014900;28;20026;-54
2021/07/23 06:53:01;;;;;;;3.17;1.92;;;23.80;81.60;;;;;;5014719;28;20044;-53
2021/07/23 06:55:27;;;;;;;2.05;1.83;;;;;;;;;;5014800;28;20105;-52
2021/07/23 06:57:53;;;;;;;3.50;2.53;;;;;;;;;;5015328;28;20036;-54
2021/07/23 07:00:19;;;;;;;4.20;1.90;;;;;;;;;;5014795;28;20482;-51
2021/07/23 07:02:45;;;;;;;3.35;1.80;;;;;;;;;;5014675;28;20030;-52
2021/07/23 07:05:11;;;;;;;2.60;1.73;;;;;;;;;;5014603;28;20036;-54
2021/07/23 07:07:38;;;;;;;3.65;2.17;;;;;;;;;;5014465;28;20026;-54
2021/07/23 07:10:04;;;;;;;3.72;2.40;;;;;;;;;;5014512;28;20034;-54
2021/07/23 07:12:30;;;;;;;2.50;2.30;;;;;;;;;;5014385;28;20052;-54
2021/07/23 07:14:56;;;;;;;3.78;2.85;;;;;;;;;;5014689;28;20034;-53
2021/07/23 07:17:22;;;;;;;2.65;2.17;;;;;;;;;;5014378;28;20080;-54
2021/07/23 07:19:49;;;;;;;4.13;2.20;;;;;;;;;;5014157;28;20026;-54
2021/07/23 07:22:16;;;;;;;5.35;2.42;;;;;;;;;;5014173;28;20541;-51
2021/07/23 07:24:42;;;;;;;2.60;2.15;;;;;;;;;;5014218;28;20104;-52
2021/07/23 07:27:08;;;;;;;4.05;2.30;;;;;;;;;;5014072;28;20101;-53
2021/07/23 07:29:36;;;;;;;6.60;2.70;;;;;;;;;;5014010;28;20517;-54
2021/07/23 07:32:03;;;;;;;2.78;2.08;;;;;;;;;;5013887;28;20045;-54
2021/07/23 07:34:34;;;;;;;3.13;2.53;;;;;;;;;;5014418;28;20390;-51
2021/07/23 07:37:00;;;;;;;4.45;2.28;;;;;;;;;;5014126;28;20030;-53
2021/07/23 07:39:26;;;;;;;2.72;2.45;;;;;;;;;;5013799;28;20037;-52
2021/07/23 07:41:52;;;;;;;2.90;2.28;;;;;;;;;;5013673;28;20026;-52
2021/07/23 07:44:18;;;;;;;4.63;2.33;;;;;;;;;;5013396;28;20054;-55
2021/07/23 07:46:44;;;;;;;2.35;2.15;;;;;;;;;;5012837;28;20065;-54
2021/07/23 07:49:10;;;;;;;3.08;2.22;;;;;;;;;;5013551;28;20058;-54
2021/07/23 07:51:35;;;;;;;2.92;2.13;;;;;;;;;;5013558;28;20025;-53
2021/07/23 07:54:01;;;;;;;3.60;2.65;;;;;;;;;;5013394;28;20034;-51
2021/07/23 07:56:27;;;;;;;4.35;2.35;;;;;;;;;;5013638;28;20022;-52
2021/07/23 07:58:53;;;;;;;3.30;2.40;;;;;;;;;;5013446;28;20030;-53
2021/07/23 08:01:20;;;;;;;2.67;2.35;;;23.70;78.60;;;;;;5013415;28;20077;-53
2021/07/23 08:03:46;;;;;;;3.42;2.20;;;;;;;;;;5013540;28;20033;-54
2021/07/23 08:06:24;;;;;;;3.63;2.30;;;23.70;81.70;;;;;;5013650;28;20437;-53
2021/07/23 08:08:51;;;;;;;2.53;1.80;;;;;;;;;;5013642;28;20103;-53
2021/07/23 08:11:18;;;;;;;2.40;1.98;;;;;;;;;;5013564;28;20076;-53
2021/07/23 08:13:44;;;;;;;2.80;1.85;;;;;;;;;;5013372;28;20452;-55
2021/07/23 08:16:12;;;;;;;4.22;1.98;;;23.90;83.00;;;;;;5013396;28;20029;-51
2021/07/23 08:18:38;;;;;;;2.42;1.85;;;;;;;;;;5013448;28;20097;-53
2021/07/23 08:21:04;;;;;;;2.88;2.25;;;23.80;79.10;;;;;;5013167;28;20407;-53
2021/07/23 08:23:30;;;;;;;2.13;1.92;;;;;;;;;;5013196;28;20026;-55
2021/07/23 08:25:56;;;;;;;2.65;2.17;;;;;;;;;;5012981;28;20483;-52
2021/07/23 08:28:22;;;;;;;3.40;2.40;;;;;;;;;;5013018;28;20029;-53
2021/07/23 08:30:48;;;;;;;3.25;2.53;;;;;;;;;;5012977;28;20543;-54
2021/07/23 08:33:14;;;;;;;3.58;2.45;;;;;;;;;;5013038;28;20034;-54
2021/07/23 08:35:41;;;;;;;4.97;2.67;;;;;;;;;;5012910;28;20398;-50
2021/07/23 08:38:07;;;;;;;3.05;2.47;;;;;;;;;;5012867;28;20080;-53
2021/07/23 08:40:33;;;;;;;3.78;2.60;;;;;;;;;;5012851;28;20040;-54
2021/07/23 08:43:02;;;;;;;3.92;2.45;;;23.80;82.80;;;;;;5012819;28;20054;-55
2021/07/23 08:45:28;;;;;;;6.20;2.92;;;;;;;;;;5012845;28;20141;-54
2021/07/23 08:47:54;;;;;;;4.82;2.95;;;;;;;;;;5012651;28;20502;-54
2021/07/23 08:50:20;;;;;;;3.78;2.95;;;;;;;;;;5012742;28;20108;-52
2021/07/23 08:52:47;;;;;;;6.15;3.33;;;23.90;82.20;;;;;;5012907;28;20040;-54
2021/07/23 08:55:15;;;;;;;4.13;3.00;;;23.90;82.30;;;;;;5012821;28;20021;-54
2021/07/23 08:57:41;;;;;;;3.83;2.97;;;23.80;80.10;;;;;;5012318;28;20018;-52
2021/07/23 09:00:16;;;;;;;4.10;2.50;;;23.80;75.90;;;;;;5012442;28;20105;-53
2021/07/23 09:03:01;;;;;;;3.97;2.60;;;23.90;75.20;;;;;;5012969;28;20014;-53
2021/07/23 09:05:29;;;;;;;5.00;3.00;;;23.90;81.10;;;;;;5012910;28;20073;-53
2021/07/23 09:08:00;;;;;;;4.97;2.97;;;23.90;74.10;;;;;;5012926;28;20049;-51
2021/07/23 09:10:28;;;;;;;3.75;2.70;;;23.90;80.60;;;;;;5012623;28;20041;-55
2021/07/23 09:12:55;;;;;;;3.85;3.13;;;;;;;;;;5012605;28;20025;-54
2021/07/23 09:15:21;;;;;;;3.20;2.67;;;23.90;80.90;;;;;;5012447;28;20125;-53
2021/07/23 09:17:48;;;;;;;3.45;2.75;;;;;;;;;;5012749;28;20018;-52
2021/07/23 09:20:14;;;;;;;5.68;2.80;;;;;;;;;;5012470;28;20022;-52
2021/07/23 09:22:48;;;;;;;4.72;2.92;;;24.00;74.40;;;;;;5012471;28;20052;-54
2021/07/23 09:25:14;;;;;;;3.10;2.40;;;24.00;81.10;;;;;;5012462;28;20223;-53
2021/07/23 09:27:40;;;;;;;4.30;2.47;;;;;;;;;;5012307;28;20057;-53
2021/07/23 09:30:07;;;;;;;4.68;2.78;;;24.10;79.80;;;;;;5012332;28;20065;-53
2021/07/23 09:32:34;;;;;;;3.30;2.70;;;24.10;80.70;;;;;;5011936;28;20421;-53
2021/07/23 09:35:13;;;;;;;5.00;2.90;;;24.00;75.20;;;;;;5012428;28;20042;-54
2021/07/23 09:37:58;;;;;;;5.05;2.95;;;24.00;74.90;;;;;;5012408;28;20018;-53
2021/07/23 09:40:28;;;;;;;3.40;2.95;;;24.00;81.10;;;;;;5012333;28;20048;-51
2021/07/23 09:42:58;;;;;;;5.25;2.80;;;24.00;81.30;;;;;;5012310;28;20022;-52
2021/07/23 09:45:32;;;;;;;4.40;2.83;;;24.00;75.00;;;;;;5012343;28;20030;-53
2021/07/23 09:48:10;;;;;;;4.70;2.55;;;23.80;74.70;;;;;;4994553;28;20052;-55
2021/07/23 09:50:40;;;;;;;3.17;2.88;;;24.00;81.50;;;;;;5012111;28;20108;-54
2021/07/23 09:53:10;;;;;;;4.70;3.08;;;24.30;74.90;;;;;;5012166;28;20504;-54
2021/07/23 09:55:36;;;;;;;3.78;2.70;;;;;;;;;;4994233;28;20524;-52
2021/07/23 09:58:07;;;;;;;4.93;2.58;;;24.00;74.40;;;;;;5011792;28;20371;-51
2021/07/23 10:00:41;;;;;;;4.20;2.50;;;24.10;81.20;;;;;;5011763;28;20041;-52
2021/07/23 10:03:11;;;;;;;3.78;2.90;;;24.00;77.60;;;;;;5010899;28;20025;-52
2021/07/23 10:05:56;;;;;;;3.33;2.70;;;24.20;81.30;;;;;;5011973;28;20057;-52
2021/07/23 10:08:24;;;;;;;3.33;3.03;;;;;;;;;;5011890;28;20022;-51
2021/07/23 10:10:53;;;;;;;3.80;2.90;;;24.30;81.30;;;;;;5015279;28;20367;-54
2021/07/23 10:13:23;;;;;;;5.18;2.58;;;23.90;74.80;;;;;;5015517;28;20505;-55
2021/07/23 10:15:49;;;;;;;;;;;24.00;81.80;;;;;;4998685;28;20041;-52
2021/07/23 10:18:16;;;;;;;4.05;2.88;;;;;;;;;;5015465;28;19931;-55
2021/07/23 10:20:45;;;;;;;3.90;2.78;;;24.10;81.10;;;;;;5015239;28;20037;-55
2021/07/23 10:23:11;;;;;;;3.88;3.13;;;;;;;;;;5015451;28;20392;-54
2021/07/23 10:25:37;;;;;;;3.30;2.72;;;;;;;;;;5015224;28;20041;-54
2021/07/23 10:28:04;;;;;;;4.82;2.75;;;;;;;;;;5015323;28;20498;-54
2021/07/23 10:30:30;;;;;;;4.45;3.08;;;;;;;;;;5015220;28;20168;-54
2021/07/23 10:32:56;;;;;;;5.82;2.58;;;;;;;;;;5015158;28;20195;-52
2021/07/23 10:35:24;;;;;;;4.05;3.35;;;24.00;74.90;;;;;;5015054;28;20034;-52
2021/07/23 10:37:52;;;;;;;4.00;3.13;;;24.10;81.40;;;;;;5014895;28;20052;-52
2021/07/23 10:40:29;;;;;;;5.22;3.38;;;24.10;81.40;;;;;;5014965;28;20029;-54
2021/07/23 10:42:55;;;;;;;5.72;3.47;;;;;;;;;;5014986;28;20104;-55
2021/07/23 10:45:22;;;;;;;4.10;3.35;;;;;;;;;;5014862;28;20109;-54
2021/07/23 10:47:51;;;;;;;4.50;3.17;;;24.10;74.40;;;;;;5014681;28;20085;-54
2021/07/23 10:50:25;;;;;;;7.30;4.45;;;24.10;74.20;;;;;;5014744;28;20482;-53
2021/07/23 10:52:51;;;;;;;8.57;4.13;;;;;;;;;;5014582;28;20034;-53
2021/07/23 10:55:19;;;;;;;6.65;3.80;;;;;;;;;;5014688;28;20382;-54
2021/07/23 10:58:09;;;;;;;4.72;4.00;;;24.10;80.70;;;;;;5014648;28;20068;-52
2021/07/23 11:00:50;;;;;;;7.30;3.77;;;24.20;74.40;;;;;;5014724;28;20084;-50
2021/07/23 11:03:37;;;;;;;5.13;3.17;;;23.90;74.40;;;;;;5014723;28;20478;-49
2021/07/23 11:06:23;;;;;;;7.85;3.95;;;24.20;74.50;;;;;;5014906;28;20026;-49
2021/07/23 11:08:53;;;;;;;6.32;3.55;;;24.50;81.40;;;;;;5014305;28;20390;-51
2021/07/23 11:11:21;;;;;;;6.07;4.28;;;24.20;80.90;;;;;;5014688;28;20083;-49
2021/07/23 11:13:47;;;;;;;5.00;3.22;;;;;;;;;;5014331;28;20092;-52
2021/07/23 11:16:22;;;;;;;4.75;3.47;;;24.10;74.40;;;;;;5014417;28;20037;-50
2021/07/23 11:19:00;;;;;;;4.95;3.58;;;24.20;74.00;;;;;;5014391;28;20026;-48
2021/07/23 11:21:36;;;;;;;7.40;3.40;;;24.30;74.70;;;;;;5014566;28;20413;-51
2021/07/23 11:24:14;;;;;;;5.28;3.00;;;24.30;81.10;;;;;;5014653;28;20514;-51
2021/07/23 11:26:50;;;;;;;5.60;3.50;;;24.00;81.00;;;;;;5014232;28;20494;-51
2021/07/23 11:29:33;;;;;;;6.63;3.53;;;24.20;81.40;;;;;;5014444;28;20495;-49
2021/07/23 11:32:09;;;;;;;5.95;3.63;;;24.30;74.40;;;;;;5014242;28;20022;-50
2021/07/23 11:34:37;;;;;;;6.28;3.58;;;24.40;80.60;;;;;;5014105;28;20046;-47
2021/07/23 11:37:29;;;;;;;4.53;3.58;;;24.40;74.20;;;;;;5014106;28;20025;-53
2021/07/23 11:39:57;;;;;;;5.65;3.30;;;24.50;81.60;;;;;;5014404;28;20041;-51
2021/07/23 11:42:25;;;;;;;4.38;3.13;;;24.30;81.40;;;;;;5014217;28;20025;-53
2021/07/23 11:44:54;;;;;;;6.55;4.55;;;24.40;74.90;;;;;;5013937;28;20022;-54
2021/07/23 11:47:27;;;;;;;5.15;3.60;;;24.40;74.40;;;;;;4996200;28;20046;-48
2021/07/23 11:49:53;;;;;;;6.80;3.75;;;;;;;;;;5013864;28;20024;-49
2021/07/23 11:52:20;;;;;;;5.28;3.40;;;24.40;81.00;;;;;;5013691;28;20449;-48
2021/07/23 11:54:47;;;;;;;4.90;3.17;;;;;;;;;;5013521;28;20041;-51
2021/07/23 11:57:13;;;;;;;4.63;3.63;;;;;;;;;;5013653;28;20028;-50
2021/07/23 11:59:39;;;;;;;5.22;3.13;;;;;;;;;;5013859;28;20112;-51
2021/07/23 12:02:08;;;;;;;3.67;3.03;;;24.50;74.60;;;;;;5013526;28;20022;-49
2021/07/23 12:04:39;;;;;;;5.18;3.10;;;;;;;;;;5013639;28;20029;-51
2021/07/23 12:07:05;;;;;;;7.45;3.22;;;;;;;;;;5013632;28;20026;-56
2021/07/23 12:09:31;;;;;;;4.40;3.22;;;;;;;;;;5013274;28;20493;-54
2021/07/23 12:11:57;;;;;;;5.35;3.20;;;;;;;;;;5013465;28;20021;-56
2021/07/23 12:14:24;;;;;;;3.65;2.90;;;24.50;78.00;;;;;;5013299;28;20107;-57
2021/07/23 12:16:52;;;;;;;4.53;3.00;;;24.80;80.60;;;;;;5013403;28;20378;-56
2021/07/23 12:19:18;;;;;;;3.40;2.90;;;24.50;77.70;;;;;;5013373;28;20030;-56
2021/07/23 12:21:44;;;;;;;5.85;3.45;;;;;;;;;;5013157;28;20060;-55
2021/07/23 12:24:11;;;;;;;5.93;2.92;;;;;;;;;;5013217;28;20022;-55
2021/07/23 12:26:42;;;;;;;4.75;3.15;;;24.50;74.90;;;;;;5013284;28;20446;-54
2021/07/23 12:29:13;;;;;;;3.22;2.92;;;24.50;80.90;;;;;;5013152;28;20109;-54
2021/07/23 12:31:39;;;;;;;7.05;2.92;;;;;;;;;;5012805;28;20022;-55
2021/07/23 12:34:11;;;;;;;3.88;2.70;;;24.60;74.00;;;;;;5013015;28;20048;-54
2021/07/23 12:36:47;;;;;;;4.63;3.33;;;24.60;74.00;;;;;;5013095;28;20028;-56
2021/07/23 12:39:14;;;;;;;3.35;2.97;;;24.70;80.60;;;;;;5013267;28;20096;-53
2021/07/23 12:41:41;;;;;;;4.95;2.78;;;;;;;;;;5013000;28;20022;-56
2021/07/23 12:44:07;;;;;;;5.22;3.03;;;;;;;;;;5012936;28;20057;-56
2021/07/23 12:46:33;;;;;;;4.82;3.28;;;;;;;;;;5012850;28;20034;-56
2021/07/23 12:49:19;;;;;;;4.80;2.83;;;24.60;74.10;;;;;;5012917;28;20034;-54
2021/07/23 12:51:47;;;;;;;4.35;2.83;;;24.70;81.00;;;;;;5013124;28;20029;-56
2021/07/23 12:54:13;;;;;;;3.85;2.67;;;24.50;79.40;;;;;;5013005;28;20124;-56
2021/07/23 12:56:42;;;;;;;3.40;2.95;;;24.70;80.70;;;;;;5013141;28;20080;-57
2021/07/23 12:59:25;;;;;;;4.18;2.97;;;24.60;73.90;;;;;;5012996;28;20042;-55
2021/07/23 13:01:51;;;;;;;7.20;3.17;;;;;;;;;;5012819;28;20022;-56
2021/07/23 13:04:18;;;;;;;5.03;3.10;;;;;;;;;;5012720;28;20022;-56
2021/07/23 13:06:45;;;;;;;3.30;3.00;;;24.70;80.70;;;;;;5012741;28;20467;-55
2021/07/23 13:09:11;;;;;;;3.45;3.00;;;;;;;;;;5012545;28;20018;-55
2021/07/23 13:11:38;;;;;;;6.30;2.80;;;24.80;81.60;;;;;;5012522;28;20056;-57
2021/07/23 13:14:04;;;;;;;5.00;2.55;;;;;;;;;;5012357;28;20038;-56
2021/07/23 13:16:30;;;;;;;2.90;2.45;;;;;;;;;;5012351;28;20548;-55
2021/07/23 13:18:58;;;;;;;3.75;2.80;;;;;;;;;;5012401;28;20041;-53
2021/07/23 13:21:26;;;;;;;4.63;2.72;;;;;;;;;;5012467;28;20060;-56
2021/07/23 13:23:52;;;;;;;3.28;2.80;;;;;;;;;;5012535;28;20051;-56
2021/07/23 13:26:18;;;;;;;3.85;2.63;;;;;;;;;;5012449;28;20478;-56
2021/07/23 13:28:44;;;;;;;3.65;2.80;;;;;;;;;;5012390;28;20132;-54
2021/07/23 13:31:10;;;;;;;3.45;2.83;;;;;;;;;;5012376;28;20483;-56
2021/07/23 13:33:36;;;;;;;3.22;2.92;;;;;;;;;;5012293;28;20100;-56
2021/07/23 13:36:09;;;;;;;2.97;2.70;;;25.10;81.80;;;;;;5012464;28;20379;-57
2021/07/23 13:38:38;;;;;;;3.22;2.92;;;24.80;79.30;;;;;;5012444;28;20026;-56
2021/07/23 13:41:07;;;;;;;3.10;2.70;;;;;;;;;;5012394;28;20026;-54
2021/07/23 13:43:33;;;;;;;3.97;2.72;;;;;;;;;;5014730;28;20113;-54
2021/07/23 13:45:59;;;;;;;3.70;3.10;;;;;;;;;;5016143;28;20018;-52
2021/07/23 13:48:25;;;;;;;6.60;3.50;;;;;;;;;;5016138;28;20046;-54
2021/07/23 13:50:51;;;;;;;4.60;2.90;;;;;;;;;;5016161;28;20033;-53
2021/07/23 13:53:17;;;;;;;3.60;2.90;;;;;;;;;;5016248;28;20030;-51
2021/07/23 13:55:43;;;;;;;2.67;2.47;;;;;;;;;;5016175;28;20025;-55
2021/07/23 13:58:09;;;;;;;4.65;2.97;;;;;;;;;;5015988;28;20033;-55
2021/07/23 14:00:35;;;;;;;3.97;3.17;;;;;;;;;;5015910;28;20034;-56
2021/07/23 14:03:01;;;;;;;5.30;2.60;;;;;;;;;;5015968;28;20088;-54
2021/07/23 14:05:27;;;;;;;4.20;3.15;;;;;;;;;;5016058;28;20030;-55